createdAt,value
2023-04-02T14:44:11.855Z,0.75
2023-04-02T14:46:39.705Z,0.80
2023-04-02T14:49:39.512Z,0.70
2023-04-02T14:52:13.659Z,0.90
2023-04-02T14:54:54.721Z,0.77
2023-04-02T14:57:37.675Z,0.70
2023-04-02T15:00:24.040Z,0.68
2023-04-02T15:03:13.481Z,0.52
2023-04-02T15:05:58.975Z,0.70
2023-04-02T15:08:48.270Z,0.90
2023-04-02T15:11:38.159Z,0.70
2023-04-02T15:14:27.643Z,0.73
2023-04-02T15:16:54.438Z,0.98
2023-04-02T15:19:21.193Z,0.60
2023-04-02T15:22:10.197Z,0.70
2023-04-02T15:25:01.799Z,0.90
2023-04-02T15:27:40.602Z,0.85
2023-04-02T15:30:14.760Z,0.70
2023-04-02T15:32:43.791Z,0.70
2023-04-02T15:35:22.482Z,0.60
2023-04-02T15:38:01.397Z,0.80
2023-04-02T15:40:42.883Z,0.60
2023-04-02T15:43:31.070Z,0.70
2023-04-02T15:46:16.370Z,0.88
2023-04-02T15:48:55.940Z,0.68
2023-04-02T15:51:32.833Z,0.70
2023-04-02T15:54:15.265Z,0.70
2023-04-02T15:57:09.794Z,0.60
2023-04-02T15:59:43.988Z,0.70
2023-04-02T16:02:37.121Z,0.80
2023-04-02T16:05:48.621Z,0.60
2023-04-02T16:08:18.175Z,0.60
2023-04-02T16:10:45.682Z,1.05
2023-04-02T16:13:37.999Z,0.65
2023-04-02T16:16:20.134Z,0.80
2023-04-02T16:18:51.141Z,0.60
2023-04-02T16:21:21.962Z,0.70
2023-04-02T16:23:49.157Z,0.80
2023-04-02T16:26:34.057Z,0.93
2023-04-02T16:29:27.917Z,0.80
2023-04-02T16:32:00.840Z,1.10
2023-04-02T16:35:22.283Z,0.70
2023-04-02T16:38:01.158Z,0.80
2023-04-02T16:41:06.988Z,0.70
2023-04-02T16:44:22.022Z,0.70
2023-04-02T16:47:02.266Z,0.73
2023-04-02T16:49:52.534Z,0.65
2023-04-02T16:52:26.101Z,0.70
2023-04-02T16:54:58.788Z,0.50
2023-04-02T16:57:40.418Z,0.65
2023-04-02T17:00:37.545Z,0.65
2023-04-02T17:03:13.858Z,0.60
2023-04-02T17:06:04.492Z,0.95
2023-04-02T17:08:41.735Z,0.68
2023-04-02T17:13:43.615Z,0.88
2023-04-02T17:16:17.846Z,0.60
2023-04-02T17:18:47.398Z,0.75
2023-04-02T17:21:18.381Z,0.85
2023-04-02T17:23:55.983Z,0.90
2023-04-02T17:26:27.465Z,0.65
2023-04-02T17:28:55.461Z,0.60
2023-04-02T17:31:24.901Z,0.60
2023-04-02T17:33:51.868Z,0.75
2023-04-02T17:36:53.519Z,0.75
2023-04-02T17:39:35.433Z,0.77
2023-04-02T17:42:10.795Z,0.73
2023-04-02T17:45:15.252Z,0.82
2023-04-02T17:48:04.497Z,0.68
2023-04-02T17:50:46.461Z,0.63
2023-04-02T17:53:40.962Z,0.65
2023-04-02T17:56:38.410Z,0.80
2023-04-02T17:59:13.431Z,1.92
2023-04-02T18:02:11.565Z,2.30
2023-04-02T18:05:17.254Z,1.55
2023-04-02T18:07:50.031Z,1.30
2023-04-02T18:10:53.375Z,1.15
2023-04-02T18:13:36.043Z,1.10
2023-04-02T18:16:22.511Z,1.10
2023-04-02T18:19:14.854Z,1.98
2023-04-02T18:21:56.617Z,0.90
2023-04-02T18:24:46.370Z,0.77
2023-04-02T18:27:21.304Z,0.88
2023-04-02T18:30:24.693Z,0.90
2023-04-02T18:33:03.360Z,0.90
2023-04-02T18:35:32.909Z,0.90
2023-04-02T18:38:16.644Z,0.80
2023-04-02T18:41:21.465Z,0.80
2023-04-02T18:44:24.140Z,1.00
2023-04-02T18:47:22.243Z,1.30
2023-04-02T18:50:16.600Z,0.98
2023-04-02T18:52:44.464Z,0.80
2023-04-02T18:55:24.435Z,0.85
2023-04-02T18:58:04.142Z,1.50
2023-04-02T19:00:34.489Z,1.25
2023-04-02T19:03:20.824Z,0.98
2023-04-02T19:05:53.844Z,1.10
2023-04-02T19:08:49.565Z,1.02
2023-04-02T19:11:28.402Z,1.20
2023-04-02T19:13:59.346Z,1.05
2023-04-02T19:16:44.867Z,0.90
2023-04-02T19:19:19.920Z,0.88
2023-04-02T19:22:13.879Z,0.88
2023-04-02T19:24:59.974Z,0.70
2023-04-02T19:28:00.522Z,0.93
2023-04-02T19:30:46.249Z,0.90
2023-04-02T19:33:39.671Z,0.95
2023-04-02T19:36:27.922Z,1.27
2023-04-02T19:39:25.483Z,0.90
2023-04-02T19:41:59.134Z,1.20
2023-04-02T19:44:25.950Z,0.80
2023-04-02T19:46:52.864Z,1.23
2023-04-02T19:49:28.311Z,1.00
2023-04-02T19:51:55.844Z,0.80
2023-04-02T19:56:50.040Z,0.90
2023-04-02T19:59:18.442Z,0.98
2023-04-02T20:01:46.276Z,1.10
2023-04-02T20:04:13.783Z,0.90
2023-04-02T20:09:08.517Z,0.90
2023-04-02T20:11:37.086Z,1.05
2023-04-02T20:14:05.323Z,0.90
2023-04-02T20:16:32.845Z,1.23
2023-04-02T20:18:59.964Z,1.02
2023-04-02T20:21:27.497Z,1.02
2023-04-02T20:26:22.444Z,1.00
2023-04-02T20:28:49.227Z,1.05
2023-04-02T20:31:18.175Z,1.10
2023-04-02T20:33:45.205Z,1.05
2023-04-02T20:36:14.651Z,1.05
2023-04-02T20:38:41.701Z,1.10
2023-04-02T20:41:09.217Z,1.05
2023-04-02T20:46:06.446Z,1.00
2023-04-02T20:48:35.009Z,1.10
2023-04-02T20:51:04.139Z,0.90
2023-04-02T20:53:33.542Z,1.20
2023-04-02T20:56:12.306Z,1.20
2023-04-02T20:58:39.918Z,1.10
2023-04-02T21:01:28.278Z,1.08
2023-04-02T21:04:03.113Z,1.30
2023-04-02T21:06:32.903Z,1.15
2023-04-02T21:09:01.429Z,0.90
2023-04-02T21:11:28.430Z,1.10
2023-04-02T21:13:55.427Z,0.90
2023-04-02T21:16:27.813Z,1.00
2023-04-02T21:18:56.259Z,1.20
2023-04-02T21:21:23.059Z,1.77
2023-04-02T21:23:55.410Z,1.40
2023-04-02T21:26:22.472Z,1.05
2023-04-02T21:28:49.309Z,1.20
2023-04-02T21:31:19.340Z,1.05
2023-04-02T21:33:51.606Z,1.30
2023-04-02T21:36:27.033Z,1.25
2023-04-02T21:38:58.576Z,1.05
2023-04-02T21:41:31.500Z,1.20
2023-04-02T21:43:59.896Z,1.00
2023-04-02T21:46:28.531Z,1.05
2023-04-02T21:48:57.501Z,1.10
2023-04-02T21:51:26.596Z,1.20
2023-04-02T21:53:54.174Z,1.13
2023-04-02T21:56:28.535Z,0.98
2023-04-02T21:59:01.739Z,1.00
2023-04-02T22:01:31.721Z,1.10
2023-04-02T22:04:01.050Z,1.23
2023-04-02T22:06:30.096Z,1.00
2023-04-02T22:08:59.382Z,1.02
2023-04-02T22:11:29.298Z,0.98
2023-04-02T22:13:56.682Z,1.00
2023-04-02T22:16:26.130Z,1.08
2023-04-02T22:18:54.652Z,1.00
2023-04-02T22:21:22.078Z,1.00
2023-04-02T22:23:49.292Z,1.02
2023-04-02T22:26:17.706Z,1.40
2023-04-02T22:28:44.736Z,1.65
2023-04-02T22:33:44.982Z,1.23
2023-04-02T22:36:13.038Z,0.98
2023-04-02T22:38:40.159Z,1.20
2023-04-02T22:41:11.949Z,1.38
2023-04-02T22:43:40.004Z,1.15
2023-04-02T22:46:09.146Z,1.10
2023-04-02T22:48:36.323Z,1.05
2023-04-02T22:51:03.235Z,1.45
2023-04-02T22:53:30.140Z,1.00
2023-04-02T22:56:09.063Z,1.17
2023-04-02T22:58:36.729Z,1.00
2023-04-02T23:01:25.069Z,1.20
2023-04-02T23:03:54.052Z,0.93
2023-04-02T23:06:21.079Z,1.40
2023-04-02T23:08:48.068Z,1.20
2023-04-02T23:11:21.827Z,1.63
2023-04-02T23:13:50.246Z,1.20
2023-04-02T23:16:18.021Z,1.00
2023-04-02T23:18:47.796Z,1.10
2023-04-02T23:21:16.292Z,1.00
2023-04-02T23:23:43.587Z,1.20
2023-04-02T23:26:17.333Z,1.30
2023-04-02T23:28:44.671Z,1.10
2023-04-02T23:31:14.771Z,1.20
2023-04-02T23:33:41.698Z,1.08
2023-04-02T23:36:18.179Z,1.00
2023-04-02T23:38:45.139Z,1.33
2023-04-02T23:41:16.496Z,1.10
2023-04-02T23:43:43.800Z,1.10
2023-04-02T23:46:10.915Z,1.20
2023-04-02T23:48:37.877Z,1.20
2023-04-02T23:51:05.723Z,1.30
2023-04-02T23:53:33.605Z,1.00
2023-04-02T23:56:00.768Z,1.15
2023-04-02T23:58:27.655Z,1.08
